Time;durP1;ratioP1;P1;durP2;ratioP2;P2;SDS_P1;SDS_P2;PMS_P1;PMS_P2;Temp;Humidity;BMP_temperature;BMP_pressure;BME280_temperature;BME280_humidity;BME280_pressure;Samples;Min_cycle;Max_cycle;Signal;HPM_P1;HPM_P2
2022/03/24 00:00:21;;;;;;;25.13;19.37;;;;;;;;;;5036344;28;20222;-72
2022/03/24 00:02:51;;;;;;;25.87;18.77;;;;;;;;;;5036410;28;20252;-72
2022/03/24 00:05:20;;;;;;;25.23;18.87;;;;;;;;;;5034932;28;20704;-72
2022/03/24 00:07:48;;;;;;;27.20;19.03;;;;;;;;;;5035830;28;20230;-72
2022/03/24 00:10:17;;;;;;;25.70;18.40;;;;;;;;;;5042537;28;20651;-72
2022/03/24 00:12:45;;;;;;;28.23;19.00;;;;;;;;;;5036149;28;20236;-72
2022/03/24 00:15:14;;;;;;;29.53;18.90;;;;;;;;;;5035751;28;20211;-72
2022/03/24 00:17:43;;;;;;;24.57;18.53;;;;;;;;;;5036013;28;20645;-72
2022/03/24 00:20:14;;;;;;;25.87;19.00;;;;;;;;;;5035025;28;20255;-72
2022/03/24 00:22:43;;;;;;;25.80;18.93;;;;;;;;;;5035904;28;20205;-72
2022/03/24 00:25:11;;;;;;;26.70;18.03;;;;;;;;;;5034887;28;21384;-72
2022/03/24 00:27:40;;;;;;;26.43;19.33;;;;;;;;;;5035739;28;20229;-72
2022/03/24 00:30:09;;;;;;;25.53;18.37;;;;;;;;;;5034789;28;20608;-72
2022/03/24 00:32:37;;;;;;;28.43;19.67;;;;;;;;;;5035648;28;20206;-72
2022/03/24 00:35:08;;;;;;;26.40;19.07;;;;;;;;;;5035330;28;20197;-72
2022/03/24 00:37:38;;;;;;;21.87;17.73;;;;;;;;;;5035851;28;20222;-72
2022/03/24 00:40:07;;;;;;;25.87;18.17;;;;;;;;;;5043701;28;20291;-72
2022/03/24 00:42:37;;;;;;;27.67;19.67;;;;;;;;;;5055411;28;20204;-72
2022/03/24 00:45:06;;;;;;;26.33;18.73;;;;;;;;;;5049275;28;20202;-72
2022/03/24 00:47:35;;;;;;;24.70;17.90;;;;;;;;;;5034580;28;20347;-72
2022/03/24 00:50:08;;;;;;;25.50;18.93;;;;;;;;;;5034577;28;20660;-72
2022/03/24 00:52:42;;;;;;;25.03;18.67;;;;;;;;;;5034737;28;20258;-72
2022/03/24 00:55:12;;;;;;;24.63;19.00;;;;;;;;;;5034270;28;20664;-72
2022/03/24 00:57:42;;;;;;;27.40;18.83;;;;;;;;;;5035049;28;20694;-72
2022/03/24 01:00:12;;;;;;;25.87;18.37;;;;;;;;;;5038355;28;20231;-72
2022/03/24 01:02:40;;;;;;;26.40;18.63;;;;;;;;;;5035466;28;20204;-72
2022/03/24 01:05:09;;;;;;;25.47;17.90;;;;;;;;;;5033691;28;20201;-72
2022/03/24 01:07:39;;;;;;;28.63;19.43;;;;;;;;;;5035396;28;20226;-72
2022/03/24 01:10:08;;;;;;;24.07;18.50;;;;;;;;;;5034722;28;20200;-72
2022/03/24 01:12:39;;;;;;;25.33;18.13;;;;;;;;;;5034725;28;20209;-72
2022/03/24 01:15:08;;;;;;;28.83;19.17;;;;;;;;;;5034810;28;20208;-72
2022/03/24 01:17:37;;;;;;;28.13;19.77;;;;;;;;;;5034606;28;20213;-72
2022/03/24 01:20:07;;;;;;;25.27;19.07;;;;;;;;;;5033199;28;20216;-72
2022/03/24 01:22:35;;;;;;;24.87;18.90;;;;;;;;;;5034686;28;20247;-72
2022/03/24 01:25:06;;;;;;;27.13;19.10;;;;;;;;;;5034475;28;20258;-72
2022/03/24 01:27:38;;;;;;;28.53;18.67;;;;;;;;;;5035003;28;20232;-72
2022/03/24 01:30:08;;;;;;;28.33;18.33;;;;;;;;;;5036342;28;20287;-72
2022/03/24 01:32:42;;;;;;;24.87;17.80;;;;;;;;;;5034727;28;20187;-72
2022/03/24 01:35:10;;;;;;;21.30;15.57;;;;;;;;;;5033510;28;20350;-72
2022/03/24 01:37:40;;;;;;;22.90;16.10;;;;;;;;;;5072486;22;20215;-72
2022/03/24 01:40:17;;;;;;;24.43;17.77;;;;;;;;;;5054445;22;20239;-72
2022/03/24 01:42:47;;;;;;;24.83;18.20;;;;;;;;;;5054180;28;20213;-72
2022/03/24 01:45:15;;;;;;;26.77;18.77;;;;;;;;;;5053727;28;20210;-72
2022/03/24 01:47:44;;;;;;;27.53;19.73;;;;;;;;;;5053172;28;20269;-72
2022/03/24 01:50:12;;;;;;;29.00;20.07;;;;;;;;;;5053236;28;20250;-72
2022/03/24 01:52:43;;;;;;;29.17;18.23;;;;;;;;;;5053926;28;20612;-72
2022/03/24 01:55:14;;;;;;;27.53;19.23;;;;;;;;;;5054054;28;20286;-72
2022/03/24 01:57:46;;;;;;;31.37;20.43;;;;;;;;;;5054053;28;20234;-72
2022/03/24 02:00:15;;;;;;;26.93;19.33;;;;;;;;;;5051877;28;20227;-72
2022/03/24 02:02:46;;;;;;;28.63;18.90;;;;;;;;;;5052183;28;20207;-72
2022/03/24 02:05:14;;;;;;;27.73;18.83;;;;;;;;;;5053346;28;20196;-72
2022/03/24 02:07:43;;;;;;;26.47;18.97;;;;;;;;;;5053539;28;20639;-72
2022/03/24 02:10:12;;;;;;;29.33;20.03;;;;;;;;;;5052913;28;20208;-72
2022/03/24 02:12:44;;;;;;;27.27;19.67;;;;;;;;;;5053806;28;20207;-72
2022/03/24 02:15:12;;;;;;;29.03;20.40;;;;;;;;;;5052714;28;20352;-72
2022/03/24 02:17:41;;;;;;;29.50;19.37;;;;;;;;;;5053313;28;20223;-72
2022/03/24 02:20:10;;;;;;;26.63;19.53;;;;;;;;;;5051826;28;20589;-72
2022/03/24 02:22:40;;;;;;;26.80;19.90;;;;;;;;;;5051469;28;20210;-72
2022/03/24 02:25:09;;;;;;;28.67;19.80;;;;;;;;;;5051729;28;20207;-72
2022/03/24 02:27:39;;;;;;;29.73;21.23;;;;;;;;;;5053253;28;20230;-72
2022/03/24 02:30:10;;;;;;;28.40;19.63;;;;;;;;;;5052601;28;20612;-72
2022/03/24 02:32:39;;;;;;;26.53;19.60;;;;;;;;;;5052871;28;20732;-72
2022/03/24 02:35:07;;;;;;;27.63;20.20;;;;;;;;;;5052513;28;20253;-72
2022/03/24 02:37:35;;;;;;;29.27;19.90;;;;;;;;;;5053233;28;20223;-73
2022/03/24 02:40:06;;;;;;;27.20;19.33;;;;;;;;;;5052116;28;20234;-72
2022/03/24 02:42:38;;;;;;;31.63;20.27;;;;;;;;;;5052297;28;20202;-72
2022/03/24 02:45:08;;;;;;;31.70;20.80;;;;;;;;;;5051661;28;20195;-72
2022/03/24 02:47:36;;;;;;;27.57;19.47;;;;;;;;;;5053554;28;20253;-72
2022/03/24 02:50:06;;;;;;;27.83;20.23;;;;;;;;;;5051887;28;20206;-72
2022/03/24 02:52:35;;;;;;;28.77;21.00;;;;;;;;;;5052905;28;20213;-72
2022/03/24 02:55:03;;;;;;;30.60;20.77;;;;;;;;;;5041492;28;20213;-72
2022/03/24 02:57:33;;;;;;;28.27;21.13;;;;;;;;;;5052964;28;20608;-72
2022/03/24 03:00:01;;;;;;;30.70;20.73;;;;;;;;;;5052793;28;20238;-72
2022/03/24 03:02:31;;;;;;;32.20;20.27;;;;;;;;;;5053140;28;20202;-72
2022/03/24 03:05:01;;;;;;;29.03;21.37;;;;;;;;;;5052055;28;20670;-72
2022/03/24 03:07:30;;;;;;;29.93;21.30;;;;;;;;;;5052697;28;20312;-72
2022/03/24 03:09:58;;;;;;;29.87;21.07;;;;;;;;;;5051438;28;20208;-72
2022/03/24 03:12:27;;;;;;;31.33;21.70;;;;;;;;;;5032400;28;20257;-72
2022/03/24 03:14:57;;;;;;;28.27;20.87;;;;;;;;;;5044916;28;20239;-72
2022/03/24 03:17:28;;;;;;;28.10;20.73;;;;;;;;;;5052726;28;20224;-72
2022/03/24 03:19:56;;;;;;;31.23;20.93;;;;;;;;;;5051706;28;20229;-72
2022/03/24 03:22:26;;;;;;;29.40;20.57;;;;;;;;;;5052386;28;20261;-72
2022/03/24 03:24:55;;;;;;;28.93;21.47;;;;;;;;;;5052025;28;20210;-72
2022/03/24 03:27:24;;;;;;;29.47;21.03;;;;;;;;;;5052555;28;20302;-72
2022/03/24 03:29:52;;;;;;;27.87;20.83;;;;;;;;;;5050818;28;20259;-72
2022/03/24 03:32:24;;;;;;;30.87;21.37;;;;;;;;;;5052522;28;20262;-72
2022/03/24 03:34:52;;;;;;;27.30;19.73;;;;;;;;;;5052666;28;20208;-72
2022/03/24 03:37:21;;;;;;;26.20;19.53;;;;;;;;;;5052332;28;20220;-72
2022/03/24 03:39:49;;;;;;;28.80;21.73;;;;;;;;;;5050868;28;20222;-72
2022/03/24 03:42:19;;;;;;;31.37;20.67;;;;;;;;;;5052265;28;20664;-72
2022/03/24 03:44:48;;;;;;;27.23;20.03;;;;;;;;;;5052879;28;20208;-72
2022/03/24 03:47:17;;;;;;;27.27;20.53;;;;;;;;;;5052638;28;20278;-72
2022/03/24 03:49:46;;;;;;;30.50;20.03;;;;;;;;;;5051450;28;20201;-72
2022/03/24 03:52:26;;;;;;;27.80;20.10;;;;;;;;;;5052542;28;20204;-72
2022/03/24 03:54:55;;;;;;;28.20;20.53;;;;;;;;;;5051285;28;20659;-72
2022/03/24 03:57:23;;;;;;;27.27;19.77;;;;;;;;;;5052302;28;20229;-72
2022/03/24 03:59:51;;;;;;;28.40;20.33;;;;;;;;;;5051444;28;20763;-72
2022/03/24 04:02:20;;;;;;;28.90;20.47;;;;;;;;;;5048712;28;20677;-72
2022/03/24 04:04:50;;;;;;;31.67;20.37;;;;;;;;;;5052246;28;20226;-72
2022/03/24 04:07:19;;;;;;;28.90;20.93;;;;;;;;;;5049507;28;20224;-72
2022/03/24 04:09:48;;;;;;;29.37;20.03;;;;;;;;;;5051424;28;20213;-72
2022/03/24 04:12:16;;;;;;;26.07;18.00;;;;;;;;;;5032772;28;20215;-73
2022/03/24 04:14:45;;;;;;;26.90;18.57;;;;;;;;;;5032343;28;20228;-72
2022/03/24 04:17:13;;;;;;;30.17;20.23;;;;;;;;;;5032702;28;20226;-72
2022/03/24 04:19:41;;;;;;;33.13;22.60;;;;;;;;;;5051984;28;20574;-72
2022/03/24 04:22:11;;;;;;;32.07;22.60;;;;;;;;;;5051077;28;20211;-72
2022/03/24 04:24:40;;;;;;;31.27;21.70;;;;;;;;;;5055211;28;20212;-72
2022/03/24 04:27:08;;;;;;;32.50;23.27;;;;;;;;;;5055221;28;20231;-71
2022/03/24 04:29:37;;;;;;;33.27;23.20;;;;;;;;;;5055685;28;20214;-71
2022/03/24 04:32:07;;;;;;;31.57;22.23;;;;;;;;;;5055788;28;20265;-72
2022/03/24 04:34:36;;;;;;;33.43;21.47;;;;;;;;;;5049187;28;20662;-71
2022/03/24 04:37:05;;;;;;;37.40;22.97;;;;;;;;;;5051132;28;20228;-71
2022/03/24 04:39:34;;;;;;;33.30;23.63;;;;;;;;;;5053308;28;20215;-71
2022/03/24 04:42:06;;;;;;;32.47;23.57;;;;;;;;;;5054908;28;20265;-71
2022/03/24 04:44:35;;;;;;;31.23;21.90;;;;;;;;;;5055573;28;20265;-72
2022/03/24 04:47:04;;;;;;;32.83;21.80;;;;;;;;;;5055314;28;20224;-72
2022/03/24 04:49:32;;;;;;;28.33;20.53;;;;;;;;;;5054124;28;20650;-71
2022/03/24 04:52:03;;;;;;;31.03;20.27;;;;;;;;;;5054102;28;20211;-72
2022/03/24 04:54:31;;;;;;;29.10;21.43;;;;;;;;;;5055191;28;20211;-71
2022/03/24 04:57:01;;;;;;;33.83;22.17;;;;;;;;;;5054168;28;20227;-71
2022/03/24 04:59:29;;;;;;;31.10;21.70;;;;;;;;;;5052363;28;20211;-72
2022/03/24 05:01:58;;;;;;;32.97;22.17;;;;;;;;;;5054856;28;20289;-72
2022/03/24 05:04:26;;;;;;;32.47;22.03;;;;;;;;;;5054607;28;20191;-71
2022/03/24 05:06:55;;;;;;;29.63;21.03;;;;;;;;;;5054215;28;20227;-71
2022/03/24 05:09:23;;;;;;;30.27;21.03;;;;;;;;;;5053431;28;20199;-71
2022/03/24 05:11:51;;;;;;;32.37;22.53;;;;;;;;;;5053884;28;20199;-71
2022/03/24 05:14:21;;;;;;;30.50;21.73;;;;;;;;;;5054707;28;20207;-71
2022/03/24 05:16:49;;;;;;;34.13;23.30;;;;;;;;;;5055114;28;20228;-71
2022/03/24 05:19:19;;;;;;;31.93;21.63;;;;;;;;;;5053833;28;20199;-72
2022/03/24 05:21:47;;;;;;;34.47;23.97;;;;;;;;;;5050441;28;20775;-71
2022/03/24 05:24:15;;;;;;;36.87;22.67;;;;;;;;;;5050654;28;20260;-71
2022/03/24 05:26:44;;;;;;;34.33;23.53;;;;;;;;;;5050440;28;20223;-72
2022/03/24 05:29:12;;;;;;;32.00;22.03;;;;;;;;;;5053782;28;20207;-72
2022/03/24 05:31:42;;;;;;;32.50;22.57;;;;;;;;;;5053170;28;20747;-72
2022/03/24 05:34:11;;;;;;;33.07;22.93;;;;;;;;;;5054411;28;20218;-72
2022/03/24 05:36:39;;;;;;;32.43;22.03;;;;;;;;;;5053657;28;20220;-72
2022/03/24 05:39:08;;;;;;;32.77;21.83;;;;;;;;;;5050069;28;20266;-72
2022/03/24 05:41:37;;;;;;;34.00;21.10;;;;;;;;;;5034362;28;20227;-72
2022/03/24 05:44:06;;;;;;;37.67;24.33;;;;;;;;;;5044250;28;20709;-72
2022/03/24 05:46:47;;;;;;;37.20;23.47;;;;;;;;;;5054295;28;20228;-72
2022/03/24 05:49:16;;;;;;;36.70;25.10;;;;;;;;;;5053958;28;20850;-72
2022/03/24 05:51:45;;;;;;;38.07;24.60;;;;;;;;;;5052375;28;20253;-72
2022/03/24 05:54:14;;;;;;;38.50;25.77;;;;;;;;;;5054150;28;20262;-72
2022/03/24 05:56:42;;;;;;;36.73;24.77;;;;;;;;;;5052560;28;20276;-72
2022/03/24 05:59:11;;;;;;;35.17;24.30;;;;;;;;;;5053141;28;20210;-72
2022/03/24 06:01:40;;;;;;;36.67;25.87;;;;;;;;;;5039090;28;20276;-72
2022/03/24 06:04:13;;;;;;;36.67;25.37;;;;;;;;;;5051853;28;20631;-72
2022/03/24 06:06:42;;;;;;;40.30;26.93;;;;;;;;;;5051800;28;20273;-72
2022/03/24 06:09:11;;;;;;;38.53;25.80;;;;;;;;;;5051482;28;20253;-72
2022/03/24 06:11:40;;;;;;;35.27;24.97;;;;;;;;;;5052123;28;20210;-72
2022/03/24 06:14:12;;;;;;;38.73;26.13;;;;;;;;;;5052936;28;20203;-72
2022/03/24 06:16:41;;;;;;;38.40;26.87;;;;;;;;;;5051212;28;20309;-72
2022/03/24 06:19:12;;;;;;;36.53;25.20;;;;;;;;;;5052170;28;20265;-72
2022/03/24 06:21:40;;;;;;;37.20;25.50;;;;;;;;;;5050007;28;20278;-72
2022/03/24 06:24:09;;;;;;;33.83;25.00;;;;;;;;;;5049706;28;20265;-72
2022/03/24 06:26:38;;;;;;;33.30;24.47;;;;;;;;;;5051460;28;20717;-72
2022/03/24 06:29:13;;;;;;;32.83;24.00;;;;;;;;;;5053443;28;20210;-72
2022/03/24 06:31:42;;;;;;;37.03;25.47;;;;;;;;;;5051933;28;20198;-72
2022/03/24 06:34:12;;;;;;;37.40;25.83;;;;;;;;;;5053178;28;20203;-72
2022/03/24 06:36:41;;;;;;;35.77;25.47;;;;;;;;;;5043792;28;20216;-72
2022/03/24 06:39:09;;;;;;;37.20;25.23;;;;;;;;;;5050543;28;20213;-74
2022/03/24 06:41:38;;;;;;;39.00;26.73;;;;;;;;;;5053468;28;20277;-73
2022/03/24 06:44:07;;;;;;;40.07;26.87;;;;;;;;;;5053725;28;20208;-72
2022/03/24 06:46:38;;;;;;;41.97;26.80;;;;;;;;;;5048541;28;20758;-72
2022/03/24 06:49:07;;;;;;;41.10;27.70;;;;;;;;;;5055774;28;20213;-72
2022/03/24 06:51:36;;;;;;;37.40;25.97;;;;;;;;;;5053664;28;20201;-72
2022/03/24 06:54:05;;;;;;;42.13;26.77;;;;;;;;;;5052813;28;20210;-72
2022/03/24 06:56:34;;;;;;;39.97;27.57;;;;;;;;;;5044355;28;20214;-72
2022/03/24 06:59:02;;;;;;;41.80;27.27;;;;;;;;;;5052215;28;20234;-72
2022/03/24 07:01:30;;;;;;;41.23;28.37;;;;;;;;;;5052213;28;20230;-72
2022/03/24 07:03:59;;;;;;;39.13;28.13;;;;;;;;;;5053334;28;20287;-72
2022/03/24 07:06:28;;;;;;;40.13;29.10;;;;;;;;;;5052252;28;20219;-72
2022/03/24 07:08:57;;;;;;;37.73;27.63;;;;;;;;;;5052842;28;20208;-72
2022/03/24 07:11:26;;;;;;;38.63;26.03;;;;;;;;;;5053364;28;20579;-72
2022/03/24 07:13:54;;;;;;;33.60;25.83;;;;;;;;;;5052830;28;20548;-73
2022/03/24 07:16:23;;;;;;;31.07;24.03;;;;;;;;;;5052960;28;20226;-72
2022/03/24 07:18:52;;;;;;;32.40;25.30;;;;;;;;;;5052701;28;20199;-72
2022/03/24 07:21:20;;;;;;;34.13;24.80;;;;;;;;;;5052919;28;20199;-72
2022/03/24 07:23:49;;;;;;;33.17;24.77;;;;;;;;;;5052662;28;20203;-72
2022/03/24 07:26:18;;;;;;;35.87;25.50;;;;;;;;;;5052957;28;20207;-72
2022/03/24 07:28:48;;;;;;;31.47;24.93;;;;;;;;;;5052917;28;20261;-72
2022/03/24 07:31:19;;;;;;;29.23;22.73;;;;;;;;;;5052732;28;20294;-72
2022/03/24 07:33:48;;;;;;;32.23;24.83;;;;;;;;;;5052569;28;20203;-72
2022/03/24 07:36:17;;;;;;;32.57;23.33;;;;;;;;;;5051733;28;20210;-72
2022/03/24 07:38:45;;;;;;;31.50;24.60;;;;;;;;;;5047046;28;20677;-72
2022/03/24 07:41:14;;;;;;;31.27;23.77;;;;;;;;;;5045515;28;20211;-72
2022/03/24 07:43:44;;;;;;;35.47;24.33;;;;;;;;;;5052656;28;20202;-73
2022/03/24 07:46:12;;;;;;;31.90;23.90;;;;;;;;;;5052525;28;20463;-73
2022/03/24 07:48:46;;;;;;;31.93;23.13;;;;;;;;;;5052217;28;20261;-72
2022/03/24 07:51:14;;;;;;;31.93;24.40;;;;;;;;;;5052587;28;20199;-72
2022/03/24 07:53:53;;;;;;;35.17;25.23;;;;;;;;;;5051874;28;20253;-73
2022/03/24 07:56:24;;;;;;;34.23;24.57;;;;;;;;;;5051592;28;20219;-72
2022/03/24 07:58:54;;;;;;;32.80;24.97;;;;;;;;;;5054683;28;20237;-72
2022/03/24 08:01:26;;;;;;;31.53;25.07;;;;;;;;;;5055565;28;20203;-72
2022/03/24 08:03:55;;;;;;;34.23;25.40;;;;;;;;;;5056099;28;20317;-72
2022/03/24 08:06:24;;;;;;;34.80;25.27;;;;;;;;;;5055919;28;20330;-72
2022/03/24 08:08:53;;;;;;;31.27;24.57;;;;;;;;;;5056261;28;20268;-72
2022/03/24 08:11:22;;;;;;;31.37;24.67;;;;;;;;;;5056085;28;20662;-73
2022/03/24 08:13:53;;;;;;;33.30;26.30;;;;;;;;;;5054327;28;20211;-72
2022/03/24 08:16:24;;;;;;;35.37;25.40;;;;;;;;;;5055453;28;20707;-73
2022/03/24 08:18:53;;;;;;;33.17;24.77;;;;;;;;;;5055841;28;20193;-73
2022/03/24 08:21:22;;;;;;;33.57;25.27;;;;;;;;;;5055772;28;20221;-73
2022/03/24 08:23:50;;;;;;;36.73;26.10;;;;;;;;;;5055814;28;20626;-73
2022/03/24 08:26:19;;;;;;;34.60;24.57;;;;;;;;;;5055531;28;20215;-73
2022/03/24 08:28:55;;;;;;;31.50;24.37;;;;;;;;;;5055781;28;20282;-73
2022/03/24 08:31:25;;;;;;;33.73;23.30;;;;;;;;;;5039321;28;20682;-73
2022/03/24 08:33:54;;;;;;;28.13;23.00;;;;;;;;;;5035774;28;20223;-73
2022/03/24 08:36:22;;;;;;;33.23;24.27;;;;;;;;;;5042365;28;20697;-73
2022/03/24 08:38:51;;;;;;;31.20;23.93;;;;;;;;;;5055280;28;20209;-73
2022/03/24 08:41:19;;;;;;;33.10;23.87;;;;;;;;;;5048697;28;20210;-73
2022/03/24 08:43:48;;;;;;;32.37;24.13;;;;;;;;;;5055513;28;20287;-73
2022/03/24 08:46:16;;;;;;;31.10;23.50;;;;;;;;;;5055557;28;20206;-73
2022/03/24 08:48:46;;;;;;;33.40;22.67;;;;;;;;;;5055462;28;20260;-73
2022/03/24 08:51:17;;;;;;;31.80;23.17;;;;;;;;;;5054887;28;20613;-74
2022/03/24 08:53:45;;;;;;;29.30;23.63;;;;;;;;;;5055292;28;20195;-73
2022/03/24 08:56:14;;;;;;;30.83;23.33;;;;;;;;;;5055596;28;20203;-73
2022/03/24 08:58:42;;;;;;;36.23;24.23;;;;;;;;;;5055097;28;20243;-73
2022/03/24 09:01:11;;;;;;;32.27;22.93;;;;;;;;;;5054608;28;20210;-73
2022/03/24 09:03:40;;;;;;;30.60;23.30;;;;;;;;;;5054882;28;20246;-73
2022/03/24 09:06:11;;;;;;;28.53;22.97;;;;;;;;;;5054870;28;20207;-73
2022/03/24 09:08:39;;;;;;;29.77;22.20;;;;;;;;;;5054303;28;20203;-74
2022/03/24 09:11:08;;;;;;;32.47;24.03;;;;;;;;;;5054998;28;20206;-73
2022/03/24 09:13:36;;;;;;;29.33;22.43;;;;;;;;;;5054927;28;20195;-74
2022/03/24 09:16:05;;;;;;;27.77;22.20;;;;;;;;;;5054687;28;20236;-74
2022/03/24 09:18:34;;;;;;;31.27;21.90;;;;;;;;;;5054722;28;20203;-74
2022/03/24 09:21:04;;;;;;;29.37;22.93;;;;;;;;;;5054872;28;20210;-73
2022/03/24 09:23:34;;;;;;;29.40;22.33;;;;;;;;;;5054537;28;20219;-73
2022/03/24 09:26:02;;;;;;;26.37;21.47;;;;;;;;;;5054859;28;20202;-73
2022/03/24 09:28:52;;;;;;;27.47;21.90;;;;;;;;;;5054197;28;20203;-73
2022/03/24 09:31:21;;;;;;;26.50;22.47;;;;;;;;;;5054454;28;20200;-73
2022/03/24 09:33:49;;;;;;;27.10;22.13;;;;;;;;;;5054528;28;20211;-74
2022/03/24 09:36:18;;;;;;;26.17;22.27;;;;;;;;;;5053957;28;20222;-74
2022/03/24 09:38:48;;;;;;;26.30;22.90;;;;;;;;;;5054055;28;20217;-74
2022/03/24 09:41:16;;;;;;;29.60;23.30;;;;;;;;;;5054366;28;20257;-74
2022/03/24 09:43:46;;;;;;;31.20;22.87;;;;;;;;;;5053446;28;20229;-74
2022/03/24 09:46:15;;;;;;;31.33;22.83;;;;;;;;;;5054251;28;20589;-74
2022/03/24 09:48:44;;;;;;;25.73;22.07;;;;;;;;;;5054140;28;20199;-74
2022/03/24 09:51:13;;;;;;;29.47;24.20;;;;;;;;;;5054182;28;20199;-75
2022/03/24 09:53:41;;;;;;;27.17;22.30;;;;;;;;;;5053764;28;20249;-74
2022/03/24 09:56:12;;;;;;;25.87;22.77;;;;;;;;;;5053690;28;20289;-74
2022/03/24 09:58:42;;;;;;;28.87;22.87;;;;;;;;;;5053372;28;20199;-74
2022/03/24 10:01:17;;;;;;;26.25;22.38;;;;;;;;;;5038572;28;20674;-74
2022/03/24 10:04:01;;;;;;;32.33;22.70;;;;;;;;;;5048469;28;20725;-74
2022/03/24 10:06:29;;;;;;;28.63;22.10;;;;;;;;;;5051899;28;20227;-74
2022/03/24 10:08:58;;;;;;;27.52;22.38;;;;;;;;;;5053477;28;20252;-74
2022/03/24 10:11:28;;;;;;;26.42;22.50;;;;;;;;;;5053441;28;20646;-74
2022/03/24 10:13:58;;;;;;;28.55;22.75;;;;;;;;;;5053455;28;20195;-74
2022/03/24 10:16:41;;;;;;;26.02;22.25;;;;;;;;;;5053320;28;20219;-74
2022/03/24 10:19:12;;;;;;;27.10;21.52;;;;;;;;;;5051774;28;20199;-74
2022/03/24 10:21:42;;;;;;;27.23;21.45;;;;;;;;;;5052484;28;20188;-74
2022/03/24 10:24:13;;;;;;;27.33;21.23;;;;;;;;;;5053412;28;20644;-74
2022/03/24 10:26:47;;;;;;;23.95;21.23;;;;;;;;;;5053255;28;20698;-74
2022/03/24 10:29:17;;;;;;;26.40;21.42;;;;;;;;;;5053358;28;20241;-74
2022/03/24 10:31:45;;;;;;;26.25;21.60;;;;;;;;;;5052755;28;20202;-74
2022/03/24 10:34:14;;;;;;;24.50;21.33;;;;;;;;;;5053347;28;20290;-74
2022/03/24 10:36:42;;;;;;;26.50;21.55;;;;;;;;;;5053913;28;20227;-74
2022/03/24 10:39:11;;;;;;;27.27;21.05;;;;;;;;;;5053226;28;20272;-74
2022/03/24 10:41:40;;;;;;;26.35;21.55;;;;;;;;;;5053122;28;20203;-73
2022/03/24 10:44:12;;;;;;;27.13;21.73;;;;;;;;;;4700488;28;9999957;-73
2022/03/24 10:46:42;;;;;;;25.15;20.67;;;;;;;;;;5049879;28;20233;-73
2022/03/24 10:49:18;;;;;;;25.05;20.67;;;;;;;;;;5049722;28;20293;-74
2022/03/24 10:51:49;;;;;;;23.83;20.40;;;;;;;;;;5049553;28;20211;-74
2022/03/24 10:54:28;;;;;;;27.75;20.55;;;;;;;;;;5049461;28;20191;-75
2022/03/24 10:57:04;;;;;;;24.83;20.30;;;;;;;;;;5049661;28;20230;-74
2022/03/24 10:59:37;;;;;;;24.02;20.02;;;;;;;;;;5050045;28;20248;-75
2022/03/24 11:02:05;;;;;;;22.30;18.63;;;;;;;;;;5050403;28;20192;-74
2022/03/24 11:04:34;;;;;;;25.90;20.10;;;;;;;;;;5049602;28;20219;-74
2022/03/24 11:07:02;;;;;;;23.50;19.92;;;;;;;;;;5049088;28;20227;-75
2022/03/24 11:09:32;;;;;;;23.67;19.38;;;;;;;;;;5049745;28;20203;-75
2022/03/24 11:12:19;;;;;;;22.65;19.63;;;;;;;;;;5050119;28;20604;-74
2022/03/24 11:14:50;;;;;;;23.85;19.30;;;;;;;;;;5049900;28;20662;-75
2022/03/24 11:17:19;;;;;;;25.00;20.17;;;;;;;;;;5029908;28;20220;-75
2022/03/24 11:19:51;;;;;;;25.30;19.13;;;;;;;;;;5047872;28;20670;-75
2022/03/24 11:22:20;;;;;;;22.02;18.45;;;;;;;;;;5034898;28;20248;-75
2022/03/24 11:24:48;;;;;;;22.83;18.98;;;;;;;;;;5049270;28;20226;-74
2022/03/24 11:27:19;;;;;;;23.50;18.65;;;;;;;;;;5049742;28;20280;-74
2022/03/24 11:29:49;;;;;;;25.08;19.27;;;;;;;;;;5049966;28;20552;-74
2022/03/24 11:32:18;;;;;;;21.52;18.45;;;;;;;;;;5050911;28;20589;-74
2022/03/24 11:34:46;;;;;;;25.15;19.23;;;;;;;;;;5053680;28;20265;-74
2022/03/24 11:37:15;;;;;;;23.58;18.33;;;;;;;;;;5053658;28;20284;-74
2022/03/24 11:40:02;;;;;;;21.52;17.75;;;;;;;;;;5053296;28;20274;-74
2022/03/24 11:42:31;;;;;;;23.77;18.85;;;;;;;;;;5053602;28;20211;-74
2022/03/24 11:45:03;;;;;;;20.98;17.38;;;;;;;;;;5053057;28;20366;-74
2022/03/24 11:47:48;;;;;;;21.20;17.13;;;;;;;;;;5053503;28;20284;-74
2022/03/24 11:50:17;;;;;;;23.13;17.30;;;;;;;;;;5052612;28;20196;-74
2022/03/24 11:52:46;;;;;;;21.13;16.95;;;;;;;;;;5053604;28;20207;-74
2022/03/24 11:55:15;;;;;;;18.63;16.60;;;;;;;;;;5052597;28;20203;-74
2022/03/24 11:57:43;;;;;;;22.27;16.73;;;;;;;;;;5053478;28;20223;-75
2022/03/24 12:00:30;;;;;;;22.88;16.13;;;;;;;;;;5053394;28;20261;-75
2022/03/24 12:03:02;;;;;;;18.77;13.90;;;;;;;;;;5052943;28;20629;-74
2022/03/24 12:05:51;;;;;;;21.10;14.15;;;;;;;;;;5052811;28;20211;-74
2022/03/24 12:08:27;;;;;;;18.30;13.93;;;;;;;;;;5052726;28;20219;-75
2022/03/24 12:10:56;;;;;;;20.13;16.00;;;;;;;;;;5053027;28;20199;-74
2022/03/24 12:13:24;;;;;;;19.13;14.15;;;;;;;;;;5045303;28;20619;-75
2022/03/24 12:16:12;;;;;;;22.98;12.85;;;;;;;;;;5053164;28;20237;-74
2022/03/24 12:18:43;;;;;;;18.23;11.95;;;;;;;;;;5052356;28;20282;-75
2022/03/24 12:21:20;;;;;;;17.00;12.25;;;;;;;;;;5051872;28;20199;-75
2022/03/24 12:24:08;;;;;;;15.93;11.48;;;;;;;;;;5053963;28;20199;-75
2022/03/24 12:26:40;;;;;;;20.20;11.10;;;;;;;;;;5055607;28;20234;-75
2022/03/24 12:29:16;;;;;;;17.52;10.20;;;;;;;;;;5053218;28;20195;-75
2022/03/24 12:31:57;;;;;;;19.05;9.75;;;;;;;;;;5053356;28;20292;-75
2022/03/24 12:34:30;;;;;;;15.57;9.27;;;;;;;;;;5053008;28;20199;-75
2022/03/24 12:37:00;;;;;;;16.98;9.70;;;;;;;;;;5052091;28;20694;-74
2022/03/24 12:39:32;;;;;;;15.32;10.50;;;;;;;;;;5052316;28;20207;-74
2022/03/24 12:42:12;;;;;;;17.33;11.25;;;;;;;;;;5052808;28;20206;-75
2022/03/24 12:44:50;;;;;;;17.75;12.85;;;;;;;;;;5051197;28;20326;-74
2022/03/24 12:47:30;;;;;;;19.27;12.38;;;;;;;;;;5052343;28;20233;-74
2022/03/24 12:50:00;;;;;;;17.05;12.57;;;;;;;;;;5052781;28;20191;-74
2022/03/24 12:52:43;;;;;;;16.42;11.40;;;;;;;;;;5052084;28;20215;-75
2022/03/24 12:55:20;;;;;;;18.33;10.70;;;;;;;;;;5052580;28;20265;-75
2022/03/24 12:57:56;;;;;;;15.80;10.15;;;;;;;;;;5051708;28;20257;-75
2022/03/24 13:00:27;;;;;;;17.30;11.50;;;;;;;;;;5051886;28;20207;-75
2022/03/24 13:02:56;;;;;;;18.70;10.90;;;;;;;;;;5051890;28;20203;-75
2022/03/24 13:05:27;;;;;;;19.58;10.95;;;;;;;;;;5051494;28;20647;-75
2022/03/24 13:07:56;;;;;;;16.08;10.82;;;;;;;;;;5051327;28;20231;-75
2022/03/24 13:10:26;;;;;;;15.07;10.77;;;;;;;;;;5047389;28;20724;-75
2022/03/24 13:12:57;;;;;;;13.30;9.95;;;;;;;;;;5047423;28;20218;-75
2022/03/24 13:15:29;;;;;;;13.98;9.18;;;;;;;;;;5047828;28;20262;-75
2022/03/24 13:17:58;;;;;;;17.63;9.52;;;;;;;;;;5046122;28;20282;-74
2022/03/24 13:20:29;;;;;;;13.10;8.63;;;;;;;;;;5045647;28;20207;-74
2022/03/24 13:23:03;;;;;;;17.52;9.88;;;;;;;;;;5049994;28;20547;-74
2022/03/24 13:25:32;;;;;;;14.70;8.52;;;;;;;;;;5049666;28;20216;-74
2022/03/24 13:28:02;;;;;;;13.57;8.10;;;;;;;;;;5045794;28;20306;-74
2022/03/24 13:30:32;;;;;;;19.42;8.18;;;;;;;;;;5046492;28;20648;-74
2022/03/24 13:33:03;;;;;;;12.38;7.60;;;;;;;;;;5044969;28;20203;-74
2022/03/24 13:35:34;;;;;;;13.93;8.05;;;;;;;;;;5050680;28;20285;-74
2022/03/24 13:38:04;;;;;;;13.57;8.48;;;;;;;;;;5051191;28;20702;-74
2022/03/24 13:40:34;;;;;;;17.13;7.95;;;;;;;;;;5048315;28;20250;-74
2022/03/24 13:43:03;;;;;;;16.27;8.65;;;;;;;;;;5047722;28;20246;-75
2022/03/24 13:45:33;;;;;;;16.27;8.50;;;;;;;;;;5051456;28;20229;-75
2022/03/24 13:48:02;;;;;;;13.75;9.05;;;;;;;;;;5051259;28;20633;-75
2022/03/24 13:50:32;;;;;;;15.80;10.25;;;;;;;;;;5050022;28;20728;-75
2022/03/24 13:53:13;;;;;;;16.13;10.32;;;;;;;;;;5047966;28;20377;-75
2022/03/24 13:55:41;;;;;;;16.90;9.80;;;;;;;;;;5050870;28;20831;-74
2022/03/24 13:58:13;;;;;;;15.95;9.30;;;;;;;;;;5048689;28;20227;-74
2022/03/24 14:00:45;;;;;;;17.10;11.27;;;;;;;;;;5050002;28;20260;-74
2022/03/24 14:03:14;;;;;;;18.80;11.85;;;;;;;;;;5049080;28;20229;-74
2022/03/24 14:06:01;;;;;;;16.73;11.38;;;;;;;;;;5050594;28;20225;-74
2022/03/24 14:08:32;;;;;;;18.33;12.93;;;;;;;;;;5047224;28;20257;-75
2022/03/24 14:11:12;;;;;;;18.75;12.63;;;;;;;;;;5049058;28;20717;-75
2022/03/24 14:13:42;;;;;;;17.58;12.88;;;;;;;;;;5046223;28;20235;-74
2022/03/24 14:16:13;;;;;;;19.08;13.00;;;;;;;;;;5048241;28;20231;-74
2022/03/24 14:18:43;;;;;;;17.00;12.25;;;;;;;;;;5050433;28;20250;-74
2022/03/24 14:21:15;;;;;;;17.05;12.48;;;;;;;;;;5049566;28;20260;-75
2022/03/24 14:23:45;;;;;;;21.95;12.65;;;;;;;;;;5049879;28;20203;-74
2022/03/24 14:26:13;;;;;;;17.20;12.38;;;;;;;;;;5050300;28;20958;-75
2022/03/24 14:28:44;;;;;;;15.60;13.35;;;;;;;;;;5048654;28;20234;-75
2022/03/24 14:31:27;;;;;;;21.27;14.27;;;;;;;;;;5045542;28;20610;-74
2022/03/24 14:33:58;;;;;;;21.85;15.00;;;;;;;;;;5030320;28;20237;-74
2022/03/24 14:36:27;;;;;;;19.88;14.60;;;;;;;;;;5032830;28;20589;-75